Time;durP1;ratioP1;P1;durP2;ratioP2;P2;SDS_P1;SDS_P2;PMS_P1;PMS_P2;Temp;Humidity;BMP_temperature;BMP_pressure;BME280_temperature;BME280_humidity;BME280_pressure;Samples;Min_cycle;Max_cycle;Signal;HPM_P1;HPM_P2
2022/06/22 00:02:28;;;;;;;11.68;7.70;;;13.70;99.90;;;;;;5073994;28;20098;-51
2022/06/22 00:04:59;;;;;;;12.25;7.63;;;13.70;99.90;;;;;;5073720;28;20487;-51
2022/06/22 00:07:34;;;;;;;10.95;8.00;;;13.60;99.90;;;;;;5073834;28;20397;-51
2022/06/22 00:10:15;;;;;;;12.05;7.82;;;13.60;99.90;;;;;;5073598;28;20052;-53
2022/06/22 00:12:40;;;;;;;12.27;8.80;;;13.60;99.90;;;;;;5073454;28;20070;-51
2022/06/22 00:15:34;;;;;;;15.27;9.02;;;13.50;99.90;;;;;;5072794;28;20045;-49
2022/06/22 00:18:02;;;;;;;12.65;8.15;;;13.50;99.90;;;;;;5073315;28;20437;-52
2022/06/22 00:20:30;;;;;;;12.35;9.40;;;13.50;99.90;;;;;;5073150;28;20470;-52
2022/06/22 00:23:05;;;;;;;;;;;13.50;99.90;;;;;;5073929;28;20053;-51
2022/06/22 00:25:30;;;;;;;9.15;8.02;;;13.40;99.90;;;;;;5073499;28;19920;-48
2022/06/22 00:28:25;;;;;;;11.30;9.20;;;13.40;99.90;;;;;;5073120;28;20114;-48
2022/06/22 00:30:58;;;;;;;14.65;9.77;;;;;;;;;;5073184;28;20577;-51
2022/06/22 00:33:23;;;;;;;11.98;8.70;;;13.30;99.90;;;;;;5072070;28;20076;-52
2022/06/22 00:35:53;;;;;;;11.80;9.90;;;13.30;99.90;;;;;;5073242;28;20526;-50
2022/06/22 00:38:31;;;;;;;11.02;8.63;;;13.30;99.90;;;;;;5073107;28;20048;-51
2022/06/22 00:41:12;;;;;;;10.30;8.32;;;13.20;99.90;;;;;;5073145;28;20513;-51
2022/06/22 00:43:38;;;;;;;13.60;10.23;;;13.10;99.90;;;;;;5073409;28;20530;-49
2022/06/22 00:46:18;;;;;;;11.48;8.10;;;13.20;99.90;;;;;;5073165;28;20132;-52
2022/06/22 00:48:45;;;;;;;10.27;7.75;;;13.10;99.90;;;;;;5071887;28;20482;-52
2022/06/22 00:51:25;;;;;;;10.02;8.25;;;13.10;99.90;;;;;;5073123;28;20059;-49
2022/06/22 00:53:59;;;;;;;9.65;8.65;;;13.10;99.90;;;;;;5073026;28;20131;-48
2022/06/22 00:56:50;;;;;;;14.90;9.52;;;13.00;99.90;;;;;;5073003;28;20049;-49
2022/06/22 00:59:24;;;;;;;11.80;10.52;;;13.00;99.90;;;;;;5072876;28;20045;-48
2022/06/22 01:01:57;;;;;;;13.00;9.77;;;13.00;99.90;;;;;;5072693;28;20103;-51
2022/06/22 01:04:28;;;;;;;12.05;10.20;;;13.00;99.90;;;;;;5072982;28;20062;-49
2022/06/22 01:07:07;;;;;;;11.77;9.13;;;12.90;99.90;;;;;;5072665;28;20557;-50
2022/06/22 01:09:33;;;;;;;14.35;10.10;;;12.90;99.90;;;;;;5072824;28;20190;-47
2022/06/22 01:12:25;;;;;;;10.70;8.07;;;12.90;99.90;;;;;;5072765;28;20545;-49
2022/06/22 01:15:12;;;;;;;12.43;10.50;;;12.90;99.90;;;;;;5072850;28;20046;-48
2022/06/22 01:17:51;;;;;;;;;;;12.90;99.90;;;;;;5073534;28;20048;-47
2022/06/22 01:20:28;;;;;;;15.35;10.07;;;12.90;99.90;;;;;;5072661;28;19927;-48
2022/06/22 01:23:15;;;;;;;14.15;11.52;;;12.80;99.90;;;;;;5072514;28;20067;-48
2022/06/22 01:25:55;;;;;;;12.13;9.77;;;12.80;99.90;;;;;;5074042;28;20049;-47
2022/06/22 01:28:22;;;;;;;10.77;9.05;;;12.70;99.90;;;;;;5076675;28;20474;-50
2022/06/22 01:30:54;;;;;;;11.63;9.35;;;12.70;99.90;;;;;;5075458;28;20040;-49
2022/06/22 01:33:36;;;;;;;12.63;10.05;;;12.70;99.90;;;;;;5076529;28;20037;-49
2022/06/22 01:36:07;;;;;;;11.32;9.00;;;12.70;99.90;;;;;;5076552;28;20119;-50
2022/06/22 01:38:37;;;;;;;12.15;10.07;;;12.60;99.90;;;;;;5076517;28;20084;-49
2022/06/22 01:41:14;;;;;;;13.50;8.82;;;12.60;99.90;;;;;;5076549;28;20402;-49
2022/06/22 01:43:46;;;;;;;16.65;11.48;;;12.50;99.90;;;;;;5076349;28;20087;-48
2022/06/22 01:46:31;;;;;;;12.10;10.00;;;12.60;99.90;;;;;;5076497;28;20075;-49
2022/06/22 01:49:22;;;;;;;13.23;11.07;;;12.60;99.90;;;;;;5075017;28;20044;-48
2022/06/22 01:51:58;;;;;;;15.60;10.80;;;12.50;99.90;;;;;;5076335;28;20483;-48
2022/06/22 01:54:36;;;;;;;12.32;11.00;;;12.50;99.90;;;;;;5075889;28;20509;-47
2022/06/22 01:57:06;;;;;;;;;;;12.40;99.90;;;;;;5076745;28;20052;-53
2022/06/22 01:59:43;;;;;;;13.77;10.52;;;12.40;99.90;;;;;;5076099;28;19921;-48
2022/06/22 02:02:46;;;;;;;13.63;9.93;;;12.40;99.90;;;;;;5075940;28;20044;-49
2022/06/22 02:05:52;;;;;;;14.55;11.10;;;12.30;99.90;;;;;;5076086;28;20052;-50
2022/06/22 02:08:27;;;;;;;15.05;9.88;;;12.50;99.90;;;;;;5055093;28;20063;-51
2022/06/22 02:11:15;;;;;;;16.38;11.45;;;12.50;99.90;;;;;;5075701;28;20048;-52
2022/06/22 02:13:52;;;;;;;10.85;9.48;;;12.30;99.90;;;;;;5075795;28;20044;-52
2022/06/22 02:16:30;;;;;;;10.85;9.15;;;12.30;99.90;;;;;;5075792;28;20115;-49
2022/06/22 02:18:58;;;;;;;10.98;9.88;;;12.20;99.90;;;;;;5075524;28;20036;-50
2022/06/22 02:21:25;;;;;;;12.07;10.32;;;12.20;99.90;;;;;;5074650;28;20391;-52
2022/06/22 02:24:21;;;;;;;17.45;12.15;;;12.30;99.90;;;;;;5075758;28;20040;-49
2022/06/22 02:26:52;;;;;;;14.23;11.48;;;12.20;99.90;;;;;;5068085;28;20395;-52
2022/06/22 02:29:22;;;;;;;11.73;10.55;;;;;;;;;;5074236;28;20076;-49
2022/06/22 02:31:51;;;;;;;13.27;10.77;;;12.20;99.90;;;;;;5075830;28;20347;-52
2022/06/22 02:34:18;;;;;;;12.95;11.63;;;12.20;99.90;;;;;;5075358;28;20390;-53
2022/06/22 02:36:48;;;;;;;14.63;11.50;;;12.10;99.90;;;;;;5074910;28;20045;-50
2022/06/22 02:39:16;;;;;;;14.63;12.85;;;12.00;99.90;;;;;;5075300;28;20037;-51
2022/06/22 02:44:33;;;;;;;14.93;12.20;;;12.00;99.90;;;;;;5075571;28;20067;-49
2022/06/22 02:47:27;;;;;;;14.70;13.20;;;11.90;99.90;;;;;;5075408;28;20040;-51
2022/06/22 02:49:58;;;;;;;14.18;12.70;;;12.00;99.90;;;;;;5075303;28;20111;-50
2022/06/22 02:52:33;;;;;;;17.52;13.40;;;12.00;99.90;;;;;;5074691;28;20048;-49
2022/06/22 02:55:00;;;;;;;17.90;13.48;;;12.00;99.90;;;;;;5073663;28;20438;-49
2022/06/22 02:57:30;;;;;;;14.40;12.13;;;11.90;99.90;;;;;;5073893;28;20059;-50
2022/06/22 02:59:58;;;;;;;12.10;10.35;;;;;;;;;;5074935;28;20406;-50
2022/06/22 03:02:25;;;;;;;13.82;12.45;;;11.80;99.90;;;;;;5074966;28;20506;-51
2022/06/22 03:04:52;;;;;;;14.83;13.37;;;11.70;99.90;;;;;;5074752;28;20053;-48
2022/06/22 03:07:20;;;;;;;14.20;12.77;;;11.70;99.90;;;;;;5074937;28;20123;-49
2022/06/22 03:09:47;;;;;;;;;;;11.70;99.90;;;;;;5075100;28;20467;-52
2022/06/22 03:12:13;;;;;;;19.92;15.35;;;11.70;99.90;;;;;;5074837;28;19924;-50
2022/06/22 03:14:55;;;;;;;15.25;13.20;;;11.70;99.90;;;;;;5074648;28;20041;-52
2022/06/22 03:17:28;;;;;;;15.50;13.00;;;11.70;99.90;;;;;;5074527;28;20119;-51
2022/06/22 03:20:14;;;;;;;13.15;11.85;;;11.70;99.90;;;;;;5074826;28;20091;-49
2022/06/22 03:22:43;;;;;;;12.88;11.70;;;11.70;99.90;;;;;;5074673;28;20045;-48
2022/06/22 03:25:44;;;;;;;13.23;11.77;;;11.60;99.90;;;;;;5074710;28;20091;-49
2022/06/22 03:28:15;;;;;;;16.83;15.18;;;11.60;99.90;;;;;;5052155;28;20048;-51
2022/06/22 03:30:54;;;;;;;13.23;11.73;;;11.70;99.90;;;;;;5074444;28;20045;-49
2022/06/22 03:33:44;;;;;;;14.98;13.52;;;11.70;99.90;;;;;;5074304;28;20398;-51
2022/06/22 03:36:18;;;;;;;14.20;11.88;;;11.70;99.90;;;;;;5073059;28;20048;-48
2022/06/22 03:38:59;;;;;;;14.18;12.75;;;11.70;99.90;;;;;;5074360;28;20044;-52
2022/06/22 03:41:30;;;;;;;14.35;11.02;;;11.80;99.90;;;;;;5074371;28;20415;-50
2022/06/22 03:44:00;;;;;;;14.52;12.98;;;11.80;99.90;;;;;;5073121;28;20127;-53
2022/06/22 03:46:50;;;;;;;15.30;13.30;;;11.90;99.90;;;;;;5074021;28;20040;-53
2022/06/22 03:49:42;;;;;;;16.63;14.38;;;11.90;99.90;;;;;;5073954;28;20506;-49
2022/06/22 03:52:16;;;;;;;16.17;14.52;;;11.90;99.90;;;;;;5073795;28;20422;-52
2022/06/22 03:55:04;;;;;;;16.88;15.25;;;11.90;99.90;;;;;;5073778;28;20495;-48
2022/06/22 03:57:36;;;;;;;17.42;15.60;;;12.00;99.90;;;;;;5073572;28;20133;-50
2022/06/22 04:00:05;;;;;;;16.35;14.73;;;11.90;99.90;;;;;;5073985;28;20178;-51
2022/06/22 04:02:31;;;;;;;17.83;15.70;;;12.00;99.90;;;;;;5073662;28;20036;-52
2022/06/22 04:04:59;;;;;;;17.73;15.98;;;12.00;99.90;;;;;;5072499;28;20127;-50
2022/06/22 04:07:30;;;;;;;21.15;16.67;;;12.00;99.90;;;;;;5072263;28;20048;-49
2022/06/22 04:09:55;;;;;;;17.52;15.80;;;12.00;99.90;;;;;;5072514;28;20060;-48
2022/06/22 04:12:34;;;;;;;18.15;16.33;;;;;;;;;;5073524;28;20049;-51
2022/06/22 04:15:30;;;;;;;19.33;16.58;;;12.10;99.90;;;;;;5073387;28;20049;-51
2022/06/22 04:18:00;;;;;;;19.15;17.15;;;12.10;99.90;;;;;;5073259;28;20056;-50
2022/06/22 04:20:50;;;;;;;21.85;17.58;;;12.10;99.90;;;;;;5073612;28;20487;-50
2022/06/22 04:23:32;;;;;;;19.40;15.93;;;12.20;99.90;;;;;;5073480;28;20128;-50
2022/06/22 04:26:13;;;;;;;18.48;16.48;;;12.30;99.90;;;;;;5073926;28;21408;-49
2022/06/22 04:28:43;;;;;;;21.13;16.83;;;12.30;99.90;;;;;;5073483;28;20060;-50
2022/06/22 04:31:15;;;;;;;17.65;15.85;;;12.40;99.90;;;;;;5073266;28;20033;-53
2022/06/22 04:33:48;;;;;;;18.20;15.38;;;12.50;99.90;;;;;;5073269;28;20043;-48
2022/06/22 04:36:20;;;;;;;18.13;16.27;;;12.60;99.90;;;;;;5073280;28;20048;-50
2022/06/22 04:38:49;;;;;;;17.90;16.05;;;13.80;99.90;;;;;;5073151;28;20064;-50
2022/06/22 04:41:26;;;;;;;16.48;14.75;;;15.30;99.90;;;;;;5073051;28;20478;-52
2022/06/22 04:43:53;;;;;;;15.05;13.52;;;16.40;99.90;;;;;;5073217;28;20052;-50
2022/06/22 04:46:30;;;;;;;14.10;12.63;;;17.60;99.90;;;;;;5073123;28;20037;-53
2022/06/22 04:49:02;;;;;;;12.20;11.10;;;18.50;99.90;;;;;;5073000;28;20127;-53
2022/06/22 04:51:34;;;;;;;11.00;9.93;;;19.50;99.90;;;;;;5073197;28;20047;-52
2022/06/22 04:54:31;;;;;;;10.90;9.80;;;19.90;99.90;;;;;;5072556;28;20513;-49
2022/06/22 04:57:01;;;;;;;10.70;9.38;;;20.90;99.90;;;;;;5069471;28;20481;-49
2022/06/22 04:59:28;;;;;;;10.70;9.60;;;21.10;99.90;;;;;;5072664;28;20207;-49
2022/06/22 05:02:06;;;;;;;10.10;9.00;;;21.70;99.90;;;;;;5072653;28;20094;-52
2022/06/22 05:04:35;;;;;;;8.85;7.95;;;21.90;99.90;;;;;;5073003;28;20328;-49
2022/06/22 05:07:12;;;;;;;9.15;8.25;;;22.30;99.90;;;;;;5072870;28;20111;-51
2022/06/22 05:09:59;;;;;;;9.70;8.00;;;22.70;99.90;;;;;;5073462;28;20562;-53
2022/06/22 05:12:26;;;;;;;;;;;22.90;99.90;;;;;;5073550;28;20102;-51
2022/06/22 05:14:55;;;;;;;8.73;7.20;;;23.30;99.90;;;;;;5072818;28;19920;-50
2022/06/22 05:17:36;;;;;;;9.43;8.00;;;23.30;99.90;;;;;;5072716;28;20525;-52
2022/06/22 05:20:15;;;;;;;8.88;8.02;;;23.50;99.90;;;;;;5072566;28;20439;-49
2022/06/22 05:22:40;;;;;;;12.50;7.63;;;23.90;99.90;;;;;;5072791;28;20458;-49
2022/06/22 05:25:09;;;;;;;9.02;8.13;;;24.20;99.90;;;;;;5072767;28;20076;-52
2022/06/22 05:28:00;;;;;;;8.23;7.43;;;24.30;99.90;;;;;;5072864;28;20106;-52
2022/06/22 05:30:37;;;;;;;8.25;7.45;;;24.30;98.90;;;;;;5072699;28;20101;-52
2022/06/22 05:33:16;;;;;;;10.18;8.10;;;23.70;97.90;;;;;;5072701;28;20048;-51
2022/06/22 05:35:51;;;;;;;9.32;7.80;;;23.70;98.20;;;;;;5072689;28;20557;-51
2022/06/22 05:38:19;;;;;;;9.38;8.27;;;23.50;98.20;;;;;;5072621;28;20556;-52
2022/06/22 05:40:46;;;;;;;;;;;23.60;98.30;;;;;;5073303;28;20044;-51
2022/06/22 05:43:12;;;;;;;9.80;7.97;;;23.60;98.40;;;;;;5072548;28;19925;-53
2022/06/22 05:45:44;;;;;;;8.80;7.90;;;23.00;97.80;;;;;;5072742;28;20045;-52
2022/06/22 05:48:15;;;;;;;9.38;7.53;;;23.60;99.10;;;;;;5071418;28;20051;-52
2022/06/22 05:50:48;;;;;;;8.73;7.40;;;23.60;99.50;;;;;;5072489;28;20049;-50
2022/06/22 05:53:29;;;;;;;9.70;7.45;;;24.10;97.30;;;;;;5072438;28;20056;-50
2022/06/22 05:56:18;;;;;;;8.35;7.63;;;24.40;98.30;;;;;;5072730;28;20049;-48
2022/06/22 05:58:59;;;;;;;8.98;7.22;;;24.50;96.40;;;;;;5072485;28;20040;-52
2022/06/22 06:01:51;;;;;;;7.28;6.57;;;25.10;96.30;;;;;;5072393;28;20055;-53
2022/06/22 06:04:37;;;;;;;8.25;6.93;;;25.90;95.00;;;;;;5072520;28;20472;-53
2022/06/22 06:07:32;;;;;;;8.85;6.63;;;25.50;93.50;;;;;;5072454;28;20045;-53
2022/06/22 06:09:58;;;;;;;8.13;6.20;;;25.70;93.10;;;;;;5072335;28;20041;-52
2022/06/22 06:12:32;;;;;;;6.78;6.07;;;25.40;92.60;;;;;;5073021;28;20044;-52
2022/06/22 06:14:57;;;;;;;6.75;6.10;;;26.00;93.00;;;;;;5074624;28;20509;-53
2022/06/22 06:17:41;;;;;;;9.75;6.38;;;25.90;92.00;;;;;;5075759;28;20127;-53
2022/06/22 06:20:21;;;;;;;8.40;6.40;;;25.20;90.50;;;;;;5075988;28;20052;-53
2022/06/22 06:22:53;;;;;;;9.07;6.95;;;25.20;91.90;;;;;;5074712;28;20517;-53
2022/06/22 06:28:28;;;;;;;7.63;6.75;;;25.30;92.10;;;;;;5075724;28;20056;-51
2022/06/22 06:31:03;;;;;;;8.38;6.60;;;24.70;90.90;;;;;;5075639;28;20050;-49
2022/06/22 06:33:35;;;;;;;7.85;6.68;;;25.00;91.60;;;;;;5075581;28;20044;-51
2022/06/22 06:36:00;;;;;;;8.18;5.88;;;25.20;91.10;;;;;;5075454;28;20040;-50
2022/06/22 06:38:36;;;;;;;7.50;5.35;;;24.80;90.70;;;;;;5075546;28;20047;-50
2022/06/22 06:41:13;;;;;;;6.90;5.80;;;24.70;90.50;;;;;;5075414;28;20123;-51
2022/06/22 06:43:48;;;;;;;6.63;4.28;;;25.20;91.50;;;;;;5075330;28;20063;-49
2022/06/22 06:46:25;;;;;;;8.35;4.50;;;24.80;90.30;;;;;;5075339;28;20053;-49
2022/06/22 06:49:18;;;;;;;5.28;3.92;;;24.40;90.10;;;;;;5074340;28;20048;-50
2022/06/22 06:51:55;;;;;;;7.90;4.80;;;24.30;90.30;;;;;;5074035;28;20101;-54
2022/06/22 06:54:28;;;;;;;5.85;5.15;;;24.10;91.10;;;;;;5075076;28;20055;-52
2022/06/22 06:57:20;;;;;;;8.23;4.60;;;24.20;91.40;;;;;;5075171;28;20040;-54
2022/06/22 06:59:51;;;;;;;6.53;4.10;;;24.40;91.10;;;;;;5073790;28;20153;-51
2022/06/22 07:02:29;;;;;;;8.02;4.25;;;25.10;91.40;;;;;;5074850;28;20053;-53
2022/06/22 07:04:58;;;;;;;6.65;4.30;;;24.80;90.10;;;;;;5075052;28;20093;-53
2022/06/22 07:07:23;;;;;;;7.05;4.20;;;25.40;90.30;;;;;;5074985;28;20041;-50
2022/06/22 07:09:51;;;;;;;6.43;4.13;;;25.40;88.90;;;;;;5074844;28;20402;-51
2022/06/22 07:13:02;;;;;;;7.13;4.25;;;25.70;88.20;;;;;;5074833;28;20134;-49
2022/06/22 07:15:37;;;;;;;5.05;3.67;;;25.50;88.20;;;;;;5052366;28;20167;-53
2022/06/22 07:18:20;;;;;;;7.35;3.10;;;25.40;84.80;;;;;;5052434;28;20426;-53
2022/06/22 07:20:52;;;;;;;5.80;3.67;;;25.40;82.90;;;;;;5052440;28;20053;-52
2022/06/22 07:23:29;;;;;;;4.93;3.72;;;25.80;84.10;;;;;;5052024;28;20044;-49
2022/06/22 07:26:12;;;;;;;;;;;25.70;83.50;;;;;;5052865;28;20053;-53
2022/06/22 07:28:44;;;;;;;5.53;3.95;;;25.90;83.10;;;;;;5052410;28;19925;-52
2022/06/22 07:31:38;;;;;;;5.47;3.47;;;25.50;81.30;;;;;;5052505;28;20565;-53
2022/06/22 07:34:13;;;;;;;6.35;3.78;;;25.40;82.40;;;;;;5052134;28;20710;-53
2022/06/22 07:36:46;;;;;;;5.35;3.83;;;25.20;82.90;;;;;;5035602;28;20067;-53
2022/06/22 07:39:20;;;;;;;6.15;4.07;;;25.30;83.40;;;;;;5051992;28;20683;-53
2022/06/22 07:41:46;;;;;;;4.07;3.60;;;24.70;83.80;;;;;;5052126;28;20072;-49
2022/06/22 07:44:13;;;;;;;5.57;3.53;;;24.90;85.30;;;;;;5051853;28;20515;-52
2022/06/22 07:47:08;;;;;;;8.32;3.38;;;24.90;84.90;;;;;;5045299;28;20411;-51
2022/06/22 07:49:43;;;;;;;4.50;2.72;;;24.00;83.90;;;;;;5074262;28;20055;-53
2022/06/22 07:52:15;;;;;;;5.57;2.90;;;24.00;85.80;;;;;;5073738;28;20048;-53
2022/06/22 07:54:47;;;;;;;5.13;3.30;;;23.50;85.70;;;;;;5074070;28;20053;-53
2022/06/22 07:57:53;;;;;;;5.78;3.38;;;23.50;88.60;;;;;;5074057;28;20040;-52
2022/06/22 08:00:21;;;;;;;5.37;3.00;;;23.00;86.30;;;;;;5074332;28;20052;-49
2022/06/22 08:02:53;;;;;;;4.10;2.78;;;22.50;86.70;;;;;;5073590;28;20048;-54
2022/06/22 08:05:25;;;;;;;4.65;2.67;;;22.60;87.30;;;;;;5073762;28;20538;-53
2022/06/22 08:08:00;;;;;;;3.33;2.47;;;22.50;89.10;;;;;;5073802;28;20048;-52
2022/06/22 08:10:47;;;;;;;3.28;2.60;;;22.40;90.00;;;;;;5073602;28;20045;-52
2022/06/22 08:13:32;;;;;;;5.90;2.53;;;22.10;89.10;;;;;;5073468;28;20063;-53
2022/06/22 08:16:14;;;;;;;4.72;2.42;;;22.00;89.50;;;;;;5073493;28;20482;-51
2022/06/22 08:18:42;;;;;;;4.20;2.45;;;22.00;90.30;;;;;;5073674;28;20051;-49
2022/06/22 08:21:09;;;;;;;;;;;22.00;90.30;;;;;;5073758;28;20052;-51
2022/06/22 08:23:36;;;;;;;3.10;2.20;;;21.90;90.00;;;;;;5073707;28;20396;-48
2022/06/22 08:26:04;;;;;;;3.55;2.42;;;22.20;90.50;;;;;;5073555;28;20039;-49
2022/06/22 08:28:34;;;;;;;4.10;3.13;;;22.10;88.80;;;;;;5073511;28;20067;-48
2022/06/22 08:31:00;;;;;;;3.97;2.70;;;22.10;88.10;;;;;;5073368;28;20040;-48
2022/06/22 08:33:42;;;;;;;3.80;3.05;;;22.40;90.10;;;;;;5072032;28;20114;-49
2022/06/22 08:36:17;;;;;;;4.65;3.20;;;22.10;90.10;;;;;;5072518;28;20084;-50
2022/06/22 08:38:55;;;;;;;3.33;2.80;;;22.20;89.50;;;;;;5073305;28;20049;-49
2022/06/22 08:41:33;;;;;;;;;;;22.00;89.70;;;;;;5073826;28;20044;-49
2022/06/22 08:44:22;;;;;;;5.03;3.00;;;22.30;90.00;;;;;;5073057;28;19920;-48
2022/06/22 08:47:06;;;;;;;4.88;2.85;;;22.20;90.10;;;;;;5069993;28;20057;-52
2022/06/22 08:49:53;;;;;;;3.15;2.72;;;21.90;86.80;;;;;;5073191;28;20048;-50
2022/06/22 08:52:51;;;;;;;5.50;3.33;;;21.90;87.70;;;;;;5073020;28;20057;-48
2022/06/22 08:55:27;;;;;;;4.40;3.28;;;21.90;90.50;;;;;;5060692;28;20052;-49
2022/06/22 08:58:11;;;;;;;3.50;3.20;;;22.10;90.40;;;;;;5072898;28;20540;-49
2022/06/22 09:01:13;;;;;;;4.47;2.80;;;22.30;90.30;;;;;;5073075;28;20045;-48
2022/06/22 09:04:08;;;;;;;5.97;3.00;;;22.30;90.00;;;;;;5073074;28;20395;-49
2022/06/22 09:06:55;;;;;;;5.00;2.92;;;22.10;88.30;;;;;;5073015;28;20067;-53
2022/06/22 09:09:30;;;;;;;4.05;2.80;;;22.10;87.50;;;;;;5072768;28;20086;-48
2022/06/22 09:12:14;;;;;;;4.53;2.67;;;22.50;89.60;;;;;;5072901;28;20060;-48
2022/06/22 09:14:50;;;;;;;6.25;2.90;;;22.80;89.10;;;;;;5072789;28;20152;-49
2022/06/22 09:17:27;;;;;;;6.05;2.83;;;22.70;87.50;;;;;;5072774;28;20102;-49
2022/06/22 09:20:02;;;;;;;5.40;2.67;;;22.90;86.50;;;;;;5072754;28;20044;-47
2022/06/22 09:22:37;;;;;;;4.40;2.42;;;22.90;86.70;;;;;;5072876;28;20098;-48
2022/06/22 09:25:12;;;;;;;5.25;2.60;;;22.90;87.70;;;;;;5072803;28;20124;-49
2022/06/22 09:28:00;;;;;;;5.30;3.50;;;23.20;87.30;;;;;;5072840;28;20045;-48
2022/06/22 09:30:45;;;;;;;6.47;2.92;;;23.00;86.70;;;;;;5072648;28;20060;-48
2022/06/22 09:33:45;;;;;;;6.18;3.10;;;23.00;87.30;;;;;;5072682;28;20049;-50
2022/06/22 09:36:29;;;;;;;5.57;2.53;;;22.80;86.10;;;;;;5072486;28;20048;-52
2022/06/22 09:39:33;;;;;;;2.53;1.65;;;23.10;85.50;;;;;;5072741;28;20068;-49
2022/06/22 09:42:24;;;;;;;4.50;1.60;;;23.00;80.70;;;;;;5071285;28;20052;-49
2022/06/22 09:45:03;;;;;;;1.98;1.30;;;23.30;83.40;;;;;;5072351;28;20082;-50
2022/06/22 09:47:57;;;;;;;3.30;1.55;;;23.10;80.20;;;;;;5075147;28;20045;-48
2022/06/22 09:50:28;;;;;;;3.00;1.40;;;23.30;81.10;;;;;;5076335;28;20044;-50
2022/06/22 09:53:07;;;;;;;1.48;1.20;;;23.50;78.70;;;;;;5075766;28;20048;-50
2022/06/22 09:58:40;;;;;;;1.60;1.40;;;23.30;77.80;;;;;;5076171;28;20056;-50
2022/06/22 10:01:15;;;;;;;2.88;1.30;;;23.20;79.10;;;;;;5076116;28;20119;-49
2022/06/22 10:03:49;;;;;;;2.65;1.40;;;23.30;77.10;;;;;;5075930;28;20600;-51
2022/06/22 10:06:42;;;;;;;3.03;1.10;;;23.10;75.50;;;;;;5076163;28;20044;-52
2022/06/22 10:09:32;;;;;;;4.28;1.00;;;23.30;74.20;;;;;;5076139;28;20049;-53
2022/06/22 10:12:21;;;;;;;2.45;0.80;;;23.50;72.40;;;;;;5075917;28;20040;-52
2022/06/22 10:15:22;;;;;;;1.33;0.90;;;23.30;69.70;;;;;;5076053;28;20040;-51
2022/06/22 10:17:52;;;;;;;2.60;1.20;;;23.50;70.30;;;;;;5075808;28;20060;-51
2022/06/22 10:20:34;;;;;;;3.20;0.85;;;23.70;71.50;;;;;;5075786;28;20051;-51
2022/06/22 10:23:20;;;;;;;2.60;1.17;;;24.00;74.00;;;;;;5075802;28;20075;-48
2022/06/22 10:26:01;;;;;;;1.65;1.20;;;24.10;72.40;;;;;;5074557;28;20048;-53
2022/06/22 10:29:25;;;;;;;1.65;0.90;;;24.20;70.70;;;;;;5076019;28;20093;-50
2022/06/22 10:32:05;;;;;;;4.43;0.80;;;24.30;68.40;;;;;;5074384;28;20036;-48
2022/06/22 10:34:47;;;;;;;3.03;1.05;;;24.10;63.50;;;;;;5075752;28;20127;-49
2022/06/22 10:37:39;;;;;;;1.55;1.13;;;24.20;64.50;;;;;;5075626;28;20497;-49
2022/06/22 10:40:07;;;;;;;1.52;0.70;;;24.00;64.00;;;;;;5075437;28;20558;-50
2022/06/22 10:45:40;;;;;;;1.98;1.30;;;24.30;67.30;;;;;;5074250;28;20063;-48
2022/06/22 10:48:18;;;;;;;3.03;1.10;;;24.50;66.30;;;;;;5075394;28;20502;-48
2022/06/22 10:51:09;;;;;;;1.05;1.00;;;24.70;64.90;;;;;;5075256;28;20568;-50
2022/06/22 10:54:13;;;;;;;1.98;1.45;;;24.90;64.60;;;;;;5075089;28;20053;-52
2022/06/22 10:57:04;;;;;;;4.53;1.30;;;24.70;66.10;;;;;;5074148;28;20075;-51
2022/06/22 10:59:59;;;;;;;2.83;1.40;;;24.60;65.40;;;;;;5073167;28;20056;-49
2022/06/22 11:02:58;;;;;;;2.30;1.20;;;24.50;64.30;;;;;;5075272;28;20049;-49
2022/06/22 11:05:32;;;;;;;2.75;1.17;;;24.60;65.00;;;;;;5075045;28;20090;-49
2022/06/22 11:08:16;;;;;;;1.92;1.20;;;24.30;66.10;;;;;;5074847;28;20048;-48
2022/06/22 11:11:08;;;;;;;3.22;1.30;;;24.20;65.20;;;;;;5074938;28;20046;-48
2022/06/22 11:14:13;;;;;;;2.17;1.40;;;24.20;65.20;;;;;;5074442;28;20044;-53
2022/06/22 11:17:04;;;;;;;1.30;1.20;;;24.20;64.80;;;;;;5073390;28;20055;-52
2022/06/22 11:20:03;;;;;;;1.85;1.42;;;24.20;64.50;;;;;;5074693;28;20053;-53
2022/06/22 11:22:46;;;;;;;4.45;1.60;;;24.10;64.80;;;;;;5074672;28;20045;-50
2022/06/22 11:31:36;;;;;;;3.03;1.30;;;24.30;65.80;;;;;;5074618;28;20047;-50
2022/06/22 11:34:51;;;;;;;2.15;1.40;;;24.60;64.80;;;;;;5074554;28;20515;-49
2022/06/22 11:37:31;;;;;;;2.85;1.45;;;24.50;63.70;;;;;;5052087;28;20048;-51
2022/06/22 11:40:28;;;;;;;2.17;1.40;;;24.20;62.80;;;;;;5052083;28;20061;-48
2022/06/22 11:43:22;;;;;;;2.33;1.30;;;24.30;63.30;;;;;;5052117;28;20049;-49
2022/06/22 11:46:09;;;;;;;2.50;0.90;;;24.60;64.80;;;;;;5052098;28;20076;-50
2022/06/22 11:48:37;;;;;;;;;;;24.80;60.10;;;;;;5052264;28;20125;-50
2022/06/22 11:51:14;;;;;;;1.35;1.10;;;24.80;59.10;;;;;;5051737;28;19920;-51
2022/06/22 11:54:14;;;;;;;3.20;1.10;;;25.10;60.30;;;;;;5051429;28;20045;-49
2022/06/22 11:57:00;;;;;;;1.90;0.95;;;25.30;60.10;;;;;;5051752;28;20049;-51
2022/06/22 11:59:50;;;;;;;0.90;0.90;;;25.20;58.90;;;;;;5051609;28;20143;-49
2022/06/22 12:02:37;;;;;;;1.20;1.00;;;24.90;55.20;;;;;;5051710;28;20095;-48
2022/06/22 12:05:11;;;;;;;2.90;1.13;;;25.10;57.30;;;;;;5051434;28;20450;-49
2022/06/22 12:07:54;;;;;;;1.65;1.55;;;25.00;55.80;;;;;;5051487;28;20543;-49
2022/06/22 12:10:47;;;;;;;1.73;1.10;;;24.80;57.70;;;;;;5050622;28;20494;-48
2022/06/22 12:13:31;;;;;;;1.80;1.30;;;24.80;57.40;;;;;;5067977;28;20063;-48
2022/06/22 12:16:16;;;;;;;1.52;1.10;;;25.00;58.20;;;;;;5073702;28;20040;-49
2022/06/22 12:18:56;;;;;;;2.03;1.25;;;25.00;57.60;;;;;;5073431;28;20561;-49
2022/06/22 12:21:38;;;;;;;1.77;1.15;;;24.90;56.60;;;;;;5073645;28;20040;-49
2022/06/22 12:24:37;;;;;;;3.28;1.30;;;25.20;57.60;;;;;;5073579;28;20041;-51
2022/06/22 12:27:14;;;;;;;3.75;1.10;;;25.00;55.00;;;;;;5073279;28;20094;-48
2022/06/22 12:29:52;;;;;;;1.98;0.90;;;25.00;52.90;;;;;;5073524;28;20048;-49
2022/06/22 12:32:24;;;;;;;1.05;0.90;;;25.20;52.50;;;;;;5073387;28;20540;-48
2022/06/22 12:35:32;;;;;;;1.30;1.20;;;25.20;53.20;;;;;;5071857;28;20032;-49
2022/06/22 12:38:06;;;;;;;2.05;1.08;;;25.30;52.90;;;;;;5055418;28;20436;-53
2022/06/22 12:40:31;;;;;;;4.25;1.50;;;25.50;54.80;;;;;;5073325;28;20041;-50
2022/06/22 12:43:16;;;;;;;2.65;1.23;;;25.40;54.90;;;;;;5073178;28;20044;-50
2022/06/22 12:45:53;;;;;;;2.22;1.30;;;25.80;56.20;;;;;;5073065;28;20041;-49
2022/06/22 12:48:43;;;;;;;1.88;1.42;;;25.90;56.00;;;;;;5072866;28;20076;-51
2022/06/22 12:51:41;;;;;;;3.15;1.50;;;25.90;54.80;;;;;;5073305;28;20044;-49
2022/06/22 12:54:19;;;;;;;1.42;1.20;;;25.90;54.80;;;;;;5071478;28;20056;-49
2022/06/22 12:57:27;;;;;;;1.85;1.05;;;25.70;56.50;;;;;;5073272;28;20050;-52
2022/06/22 13:00:11;;;;;;;1.73;1.40;;;25.50;52.50;;;;;;5050595;28;20442;-52
2022/06/22 13:02:40;;;;;;;2.95;1.27;;;25.60;53.60;;;;;;5050670;28;20118;-53
2022/06/22 13:05:16;;;;;;;2.35;1.50;;;25.70;56.00;;;;;;5050718;28;20069;-51
2022/06/22 13:07:57;;;;;;;2.00;1.50;;;26.20;57.50;;;;;;5034085;28;20048;-52
2022/06/22 13:10:26;;;;;;;1.95;1.55;;;26.30;61.00;;;;;;5050621;28;20060;-49
2022/06/22 13:12:56;;;;;;;3.30;1.55;;;26.00;54.70;;;;;;5050669;28;20111;-53
2022/06/22 13:15:28;;;;;;;1.90;1.25;;;26.00;55.50;;;;;;5050425;28;20049;-48
2022/06/22 13:18:18;;;;;;;2.13;1.45;;;26.00;55.70;;;;;;5050509;28;20194;-49
2022/06/22 13:21:16;;;;;;;2.53;1.10;;;25.90;55.60;;;;;;5050540;28;20049;-50
2022/06/22 13:23:58;;;;;;;2.08;1.20;;;25.90;56.00;;;;;;5054631;28;20070;-48
2022/06/22 13:26:57;;;;;;;2.00;1.40;;;26.00;54.30;;;;;;5054601;28;20060;-49
2022/06/22 13:29:46;;;;;;;1.38;0.95;;;26.00;53.40;;;;;;5054986;28;20052;-49
2022/06/22 13:32:13;;;;;;;4.45;1.23;;;26.20;53.60;;;;;;5077022;28;20071;-49
2022/06/22 13:34:52;;;;;;;2.88;1.38;;;26.20;53.30;;;;;;5076741;28;20536;-49
2022/06/22 13:37:58;;;;;;;1.35;1.00;;;26.20;52.00;;;;;;5076570;28;20572;-48
2022/06/22 13:40:31;;;;;;;2.00;1.20;;;26.20;52.70;;;;;;5076446;28;20053;-49
2022/06/22 13:43:53;;;;;;;1.27;0.88;;;26.40;53.00;;;;;;5076673;28;20286;-49
2022/06/22 13:46:43;;;;;;;2.53;1.27;;;26.40;51.90;;;;;;5037631;28;20556;-49
2022/06/22 13:49:25;;;;;;;2.55;1.02;;;26.60;53.10;;;;;;5054175;28;20102;-52
2022/06/22 13:52:19;;;;;;;1.67;1.10;;;26.60;49.60;;;;;;5053964;28;20057;-53
2022/06/22 13:55:03;;;;;;;2.90;1.10;;;26.80;49.80;;;;;;5054139;28;20128;-47
2022/06/22 13:57:42;;;;;;;2.58;1.30;;;26.80;49.10;;;;;;5053912;28;20056;-47
2022/06/22 14:00:23;;;;;;;3.58;1.15;;;26.60;49.60;;;;;;5054063;28;20056;-49
2022/06/22 14:03:23;;;;;;;3.35;1.15;;;26.50;48.30;;;;;;5037319;28;20493;-48
2022/06/22 14:05:58;;;;;;;2.80;1.40;;;26.60;51.00;;;;;;5053962;28;20561;-49
2022/06/22 14:08:58;;;;;;;2.33;1.00;;;26.50;51.20;;;;;;5053917;28;20049;-49